Time;durP1;ratioP1;P1;durP2;ratioP2;P2;SDS_P1;SDS_P2;PMS_P1;PMS_P2;Temp;Humidity;BMP_temperature;BMP_pressure;BME280_temperature;BME280_humidity;BME280_pressure;Samples;Min_cycle;Max_cycle;Signal;HPM_P1;HPM_P2
2023/12/04 00:01:46;;;;;;;;;;;0.20;81.00;;;;;;4136705;28;19909;-90
2023/12/04 00:04:31;;;;;;;;;;;;;;;;;;;;;
2023/12/04 02:06:42;;;;;;;;;;;0.10;81.10;;;;;;4091614;28;20388;-88
2023/12/04 02:14:45;;;;;;;;;;;;;;;;;;;;;
2023/12/04 02:22:41;;;;;;;;;;;;;;;;;;;;;
2023/12/04 02:25:01;;;;;;;;;;;;;;;;;;;;;
2023/12/04 02:27:43;;;;;;;;;;;;;;;;;;;;;
2023/12/04 03:28:42;;;;;;;;;;;;;;;;;;;;;
2023/12/04 03:52:51;;;;;;;;;;;-0.20;80.90;;;;;;4027141;23;20271;-88
2023/12/04 03:55:18;;;;;;;;;;;;;;;;;;;;;
2023/12/04 03:57:31;;;;;;;;;;;-0.20;81.00;;;;;;4108561;28;20025;-90
2023/12/04 04:06:38;;;;;;;;;;;;;;;;;;;;;
2023/12/04 04:54:30;;;;;;;;;;;-1.10;79.60;;;;;;4113496;23;20367;-89
2023/12/04 04:56:31;;;;;;;;;;;-1.20;80.30;;;;;;4110340;28;19918;-88
2023/12/04 04:58:31;;;;;;;;;;;-1.10;79.60;;;;;;4133511;28;19913;-87
2023/12/04 05:00:32;;;;;;;;;;;-1.10;79.60;;;;;;4153886;28;19924;-88
2023/12/04 05:02:35;;;;;;;;;;;-1.10;79.80;;;;;;4139013;28;19914;-88
2023/12/04 05:04:36;;;;;;;;;;;-1.20;79.60;;;;;;4154536;28;19924;-90
2023/12/04 05:06:49;;;;;;;;;;;;;;;;;;;;;
2023/12/04 05:08:56;;;;;;;;;;;-1.30;79.50;;;;;;4143549;28;21340;-88
2023/12/04 05:10:58;;;;;;;;;;;-1.40;79.50;;;;;;4124068;28;19924;-90
2023/12/04 05:12:58;;;;;;;;;;;-1.50;79.50;;;;;;4122812;28;21090;-88
2023/12/04 05:14:59;;;;;;;;;;;-1.50;79.50;;;;;;4143205;28;19956;-89
2023/12/04 05:17:00;;;;;;;;;;;-1.50;79.50;;;;;;4120526;28;19972;-88
2023/12/04 05:19:20;;;;;;;;;;;-1.60;79.50;;;;;;4139899;28;19991;-89
2023/12/04 05:21:41;;;;;;;;;;;-1.60;79.40;;;;;;4159766;28;19913;-90
2023/12/04 05:24:02;;;;;;;;;;;-1.70;79.40;;;;;;4140899;28;20340;-90
2023/12/04 05:26:22;;;;;;;;;;;-1.60;79.30;;;;;;4154509;28;20295;-89
2023/12/04 05:28:43;;;;;;;;;;;-1.70;79.20;;;;;;4153958;28;20390;-88
2023/12/04 05:31:24;;;;;;;;;;;-1.90;79.20;;;;;;4153034;28;20322;-88
2023/12/04 05:33:45;;;;;;;;;;;-1.90;79.20;;;;;;4156912;28;19929;-90
2023/12/04 05:36:19;;;;;;;;;;;-1.80;79.30;;;;;;4158954;28;19920;-87
2023/12/04 05:38:29;;;;;;;;;;;;;;;;;;;;;
2023/12/04 05:40:30;;;;;;;;;;;-2.00;79.40;;;;;;4138370;28;19952;-88
2023/12/04 05:42:31;;;;;;;;;;;-2.00;79.50;;;;;;4127287;28;19914;-91
2023/12/04 05:44:33;;;;;;;;;;;-2.00;79.50;;;;;;4140927;28;20341;-89
2023/12/04 05:46:36;;;;;;;;;;;-2.00;79.50;;;;;;4136458;28;19996;-89
2023/12/04 05:48:39;;;;;;;;;;;-2.10;79.40;;;;;;4153811;28;19936;-90
2023/12/04 05:50:40;;;;;;;;;;;-2.20;79.50;;;;;;4124946;28;19951;-89
2023/12/04 05:52:41;;;;;;;;;;;-2.20;79.60;;;;;;4123585;28;19957;-88
2023/12/04 05:54:41;;;;;;;;;;;-2.20;79.60;;;;;;4156564;28;19964;-90
2023/12/04 05:56:45;;;;;;;;;;;-2.10;79.70;;;;;;4136900;28;19955;-90
2023/12/04 05:59:09;;;;;;;;;;;-2.30;79.50;;;;;;4140068;28;19961;-89
2023/12/04 06:01:46;;;;;;;;;;;;;;;;;;;;;
2023/12/04 06:03:53;;;;;;;;;;;-2.30;79.60;;;;;;4154366;28;19961;-91
2023/12/04 06:06:01;;;;;;;;;;;-2.30;79.80;;;;;;4140207;28;20755;-90
2023/12/04 06:10:25;;;;;;;;;;;-2.20;79.80;;;;;;4126207;28;19972;-90
2023/12/04 06:12:26;;;;;;;;;;;-2.30;79.80;;;;;;4139993;28;19914;-90
2023/12/04 06:14:35;;;;;;;;;;;-2.40;79.70;;;;;;4126379;28;19922;-91
2023/12/04 06:16:39;;;;;;;;;;;-2.30;79.80;;;;;;4138094;28;19929;-90
2023/12/04 06:18:39;;;;;;;;;;;-2.50;79.70;;;;;;4135702;28;19914;-89
2023/12/04 06:20:55;;;;;;;;;;;-2.30;79.80;;;;;;4128806;28;19965;-90
2023/12/04 06:22:59;;;;;;;;;;;-2.40;79.70;;;;;;4151985;28;19991;-89
2023/12/04 06:25:29;;;;;;;;;;;-2.40;79.80;;;;;;4122062;28;19916;-88
2023/12/04 06:27:33;;;;;;;;;;;-2.40;79.80;;;;;;4153641;28;19914;-89
2023/12/04 06:29:36;;;;;;;;;;;-2.40;79.80;;;;;;4124979;28;19914;-89
2023/12/04 06:31:39;;;;;;;;;;;-2.50;79.90;;;;;;4120433;28;19944;-89
2023/12/04 06:33:52;;;;;;;;;;;-2.50;79.90;;;;;;4137164;28;20323;-89
2023/12/04 06:36:13;;;;;;;;;;;-2.50;80.00;;;;;;4155626;28;20008;-89
2023/12/04 06:38:26;;;;;;;;;;;-2.50;79.80;;;;;;4125132;28;19922;-90
2023/12/04 06:40:46;;;;;;;;;;;-2.50;79.90;;;;;;4158415;28;19936;-90
2023/12/04 06:43:07;;;;;;;;;;;-2.50;79.90;;;;;;4143982;28;19914;-87
2023/12/04 06:45:15;;;;;;;;;;;-2.50;80.00;;;;;;4125496;28;20046;-90
2023/12/04 06:47:40;;;;;;;;;;;-2.60;79.80;;;;;;4141004;28;19921;-90
2023/12/04 06:50:00;;;;;;;;;;;-2.60;79.80;;;;;;4156317;28;20024;-89
2023/12/04 06:52:24;;;;;;;;;;;-2.60;79.90;;;;;;4155352;28;19921;-89
2023/12/04 06:54:45;;;;;;;;;;;-2.60;79.80;;;;;;4141643;28;19929;-89
2023/12/04 06:57:27;;;;;;;;;;;-2.60;80.00;;;;;;4139396;28;20323;-89
2023/12/04 06:59:46;;;;;;;;;;;-2.70;80.00;;;;;;4156037;28;20659;-90
2023/12/04 07:02:07;;;;;;;;;;;-2.60;80.00;;;;;;4140364;28;20326;-90
2023/12/04 07:04:38;;;;;;;;;;;-2.70;80.10;;;;;;4153027;28;20446;-88
2023/12/04 07:07:04;;;;;;;;;;;-2.70;80.00;;;;;;4142277;28;19917;-88
2023/12/04 07:09:34;;;;;;;;;;;-2.70;80.10;;;;;;4143364;28;20327;-88
2023/12/04 07:12:05;;;;;;;;;;;;;;;;;;;;;
2023/12/04 07:14:26;;;;;;;;;;;-2.70;80.30;;;;;;4156366;28;19920;-90
2023/12/04 07:16:49;;;;;;;;;;;-2.70;80.40;;;;;;4141043;28;20395;-88
2023/12/04 07:19:22;;;;;;;;;;;-2.70;80.50;;;;;;4141473;28;20104;-90
2023/12/04 07:21:23;;;;;;;;;;;-2.70;80.30;;;;;;4121254;28;19967;-89
2023/12/04 07:23:24;;;;;;;;;;;-2.70;80.50;;;;;;4136018;28;19955;-89
2023/12/04 07:25:27;;;;;;;;;;;-2.60;80.60;;;;;;4120910;28;19925;-90
2023/12/04 07:27:28;;;;;;;;;;;-2.60;80.60;;;;;;4152506;28;20363;-90
2023/12/04 07:29:29;;;;;;;;;;;-2.60;80.60;;;;;;4133576;28;19913;-90
2023/12/04 07:31:30;;;;;;;;;;;-2.60;80.60;;;;;;4136789;28;19913;-90
2023/12/04 07:33:34;;;;;;;;;;;-2.50;80.70;;;;;;4140886;28;19924;-90
2023/12/04 07:35:35;;;;;;;;;;;-2.70;80.50;;;;;;4124132;28;20434;-90
2023/12/04 07:37:37;;;;;;;;;;;-2.50;80.80;;;;;;4136643;28;19914;-91
2023/12/04 07:39:47;;;;;;;;;;;;;;;;;;;;;
2023/12/04 07:42:10;;;;;;;;;;;-2.60;80.70;;;;;;4138417;28;19913;-90
2023/12/04 07:44:10;;;;;;;;;;;-2.50;80.90;;;;;;4139224;28;20252;-87
2023/12/04 07:46:11;;;;;;;;;;;-2.50;81.00;;;;;;4140925;28;19922;-90
2023/12/04 07:48:14;;;;;;;;;;;-2.40;81.20;;;;;;4154181;28;19921;-87
2023/12/04 07:50:35;;;;;;;;;;;-2.40;81.20;;;;;;4139591;28;20186;-89
2023/12/04 07:53:11;;;;;;;;;;;-2.40;81.20;;;;;;4142095;28;20000;-88
2023/12/04 07:55:58;;;;;;;;;;;;;;;;;;;;;
2023/12/04 07:58:22;;;;;;;;;;;-2.40;81.20;;;;;;4110224;28;19918;-89
2023/12/04 08:00:45;;;;;;;;;;;-2.30;81.40;;;;;;4106291;28;20442;-91
2023/12/04 08:03:17;;;;;;;;;;;-2.20;81.40;;;;;;4098906;28;20460;-90
2023/12/04 08:06:24;;;;;;;;;;;;;;;;;;;;;
2023/12/04 08:09:10;;;;;;;;;;;-2.10;81.60;;;;;;4107421;28;19914;-90
2023/12/04 08:20:36;;;;;;;;;;;-2.00;82.00;;;;;;4044291;29;19934;-89
2023/12/04 08:26:54;;;;;;;;;;;-1.70;82.20;;;;;;4090916;28;20323;-90
2023/12/04 16:38:37;;;;;;;;;;;0.20;80.50;;;;;;4602564;23;19928;-87
2023/12/04 16:40:56;;;;;;;;;;;0.10;80.30;;;;;;4138390;28;20040;-88
2023/12/04 16:43:15;;;;;;;;;;;0.20;80.20;;;;;;4139932;28;19928;-88
2023/12/04 16:45:59;;;;;;;;;;;0.20;80.40;;;;;;4155989;28;19960;-86
2023/12/04 16:48:35;;;;;;;;;;;0.10;80.80;;;;;;4154107;28;20286;-87
2023/12/04 16:50:57;;;;;;;;;;;0.10;80.20;;;;;;4150005;28;19936;-87
2023/12/04 16:53:32;;;;;;;;;;;0.10;80.30;;;;;;4138462;28;19992;-86
2023/12/04 16:55:51;;;;;;;;;;;0.00;80.50;;;;;;4152469;28;19936;-86
2023/12/04 16:58:12;;;;;;;;;;;0.20;80.90;;;;;;4151957;28;19979;-88
2023/12/04 17:00:31;;;;;;;;;;;0.10;80.90;;;;;;4135676;28;20009;-88
2023/12/04 17:02:53;;;;;;;;;;;0.00;81.00;;;;;;4137380;28;20000;-88
2023/12/04 17:05:13;;;;;;;;;;;0.00;80.90;;;;;;4152089;28;19923;-87
2023/12/04 17:07:32;;;;;;;;;;;0.00;81.10;;;;;;4152082;28;19924;-87
2023/12/04 17:09:51;;;;;;;;;;;0.10;81.20;;;;;;4153492;28;19920;-86
2023/12/04 17:12:10;;;;;;;;;;;0.00;81.20;;;;;;4135366;28;20079;-88
2023/12/04 17:14:30;;;;;;;;;;;0.10;82.00;;;;;;4153209;28;19932;-88
2023/12/04 17:17:05;;;;;;;;;;;0.00;81.20;;;;;;4134449;28;20044;-88
